Terminal Aerodrome Forecast
Issued by NWS Charleston, WV

Current Version | Previous Version | Text Only | Print | Product List | Glossary Off
Versions: 1 2 3 4 5 6 7 8 9 10 11 12 13 14 15 16 17 18 19 20 21 22 23 24 25 26 27 28

000
FTUS41 KRLX 240300 AAA
TAFCRW
TAF AMD
KCRW 240306Z 2403/2424 VRB03KT P6SM SCT050 BKN080
     FM240600 01004KT P6SM OVC015
     FM240800 VRB03KT P6SM OVC010
     FM241000 01004KT P6SM OVC008
     FM241300 36005KT P6SM BKN012
     FM241500 34005KT P6SM BKN020
     FM242000 33006KT P6SM SCT035=

USA.gov is the U.S. government's official web portal to all federal, state and local government web resources and services.